Startpagina
METAR-TAF:

METAR-TAF

Vliegvelden :

OR Tambo International Airport

Johannesburg, Zuid-Afrika

breedte: 26-08S, lengte: 028-14E, hoogte: 1694 m

Actueel weer

Dit bericht is 10 minuten geleden gemaakt, om 10:30 UTC
Wind 6 kt uit variabele richting
Temperatuur 18°C
Vochtigheid 13%
Druk 1024 hPa
Zicht 10 km of meer
geen wolken onder 1500 m en geen cumulonimbus

METAR: FAOR 251030Z VRB06KT CAVOK 18/M11 Q1024 NOSIG

Tijdstip: 12:40 (10:40 UTC)

Verwachting

Dit bericht is 6 uur en het 40 minuten geleden gemaakt, om 04:00 UTC
Verwachting geldig van 25 om 06 UTC tot 26 om 12 UTC
Wind 7 kt uit het zuiden
Zicht 10 km of meer
geen wolken onder 1500 m en geen cumulonimbus
Van 25 om 1600 UTC
Wind 3 kt uit variabele richting
Zicht 10 km of meer
geen wolken onder 1500 m en geen cumulonimbus
Van 26 om 0300 UTC
Wind 7 kt uit het noorden
Zicht 10 km of meer
geen wolken onder 1500 m en geen cumulonimbus

TAF: FAOR 250400Z 2506/2612 19007KT CAVOK TX19/2513Z TN05/2605Z FM251600 VRB03KT CAVOK FM260300 35007KT CAVOK

Waarnemingen en weersverwachtingen van meer dan 4000 vliegvelden (METAR en TAF).

De beschikbare stations zijn de gele en rode punten op de kaart.

Ga met uw muis naar het station om de naam te zien.

Klik dan om waarnemingen en weersverwachtingen te zien.

kaart wijzigen: klik op de groene knoppen met een zwart kruis om in te zoomen, op de groene knop met een streepje om uit te zoomen of op de groene pijlen voor aangrenzende kaarten.


METAR-TAF: